Time;durP1;ratioP1;P1;durP2;ratioP2;P2;SDS_P1;SDS_P2;PMS_P1;PMS_P2;Temp;Humidity;BMP_temperature;BMP_pressure;BME280_temperature;BME280_humidity;BME280_pressure;Samples;Min_cycle;Max_cycle;Signal;HPM_P1;HPM_P2
2021/10/13 00:01:18;;;;;;;9.57;4.57;;;8.20;99.90;;;;;;5006069;28;20045;-77
2021/10/13 00:04:02;;;;;;;;;;;8.10;99.90;;;;;;5005808;28;20052;-77
2021/10/13 00:06:46;;;;;;;5.70;4.43;;;7.90;99.90;;;;;;5020331;28;19916;-76
2021/10/13 00:09:30;;;;;;;9.13;4.63;;;8.00;99.90;;;;;;5006508;28;20532;-77
2021/10/13 00:12:16;;;;;;;6.68;4.35;;;8.00;99.90;;;;;;4992344;28;20036;-75
2021/10/13 00:15:07;;;;;;;8.00;4.70;;;7.90;99.90;;;;;;5019631;28;20057;-76
2021/10/13 00:17:51;;;;;;;8.25;4.35;;;7.80;99.90;;;;;;5005954;28;20088;-77
2021/10/13 00:20:35;;;;;;;10.82;5.78;;;7.90;99.90;;;;;;5008213;28;20400;-78
2021/10/13 00:23:19;;;;;;;11.70;4.93;;;7.90;99.90;;;;;;5012325;28;20100;-77
2021/10/13 00:26:03;;;;;;;8.75;4.70;;;8.00;99.90;;;;;;5000726;28;20501;-78
2021/10/13 00:28:47;;;;;;;7.43;4.65;;;8.10;99.90;;;;;;5015163;28;20122;-79
2021/10/13 00:31:31;;;;;;;7.93;4.13;;;8.10;99.90;;;;;;4986852;28;20046;-79
2021/10/13 00:34:16;;;;;;;9.65;4.72;;;8.00;99.90;;;;;;5001249;28;20034;-78
2021/10/13 00:37:00;;;;;;;6.85;4.28;;;8.10;99.90;;;;;;4986772;28;20045;-77
2021/10/13 00:39:44;;;;;;;8.77;4.50;;;8.10;99.90;;;;;;5001926;28;20041;-77
2021/10/13 00:42:28;;;;;;;7.75;4.50;;;8.00;99.90;;;;;;5001026;28;20044;-77
2021/10/13 00:45:13;;;;;;;13.68;4.60;;;8.00;99.90;;;;;;4999877;28;20117;-78
2021/10/13 00:47:57;;;;;;;10.00;5.18;;;8.00;99.90;;;;;;4986823;28;20037;-78
2021/10/13 00:50:42;;;;;;;9.48;4.47;;;8.00;99.90;;;;;;5017157;28;20112;-78
2021/10/13 00:53:26;;;;;;;7.75;4.50;;;8.00;99.90;;;;;;5004522;28;20520;-78
2021/10/13 00:56:10;;;;;;;7.38;4.72;;;7.90;99.90;;;;;;5005001;28;20065;-78
2021/10/13 00:58:55;;;;;;;9.40;4.67;;;7.80;99.90;;;;;;5018838;28;20041;-77
2021/10/13 01:01:58;;;;;;;8.60;4.80;;;7.60;99.90;;;;;;5018972;28;20041;-78
2021/10/13 01:04:49;;;;;;;9.65;5.35;;;7.60;99.90;;;;;;4989985;28;20065;-77
2021/10/13 01:08:03;;;;;;;8.85;5.82;;;7.60;99.90;;;;;;5004154;28;20069;-77
2021/10/13 01:11:01;;;;;;;8.00;5.28;;;7.30;99.90;;;;;;4986365;28;20041;-77
2021/10/13 01:14:07;;;;;;;9.60;5.15;;;7.40;99.90;;;;;;5004925;28;20053;-77
2021/10/13 01:17:19;;;;;;;8.18;5.40;;;7.40;99.90;;;;;;4990005;28;20073;-76
2021/10/13 01:20:14;;;;;;;9.93;5.22;;;7.50;99.90;;;;;;4990587;28;20053;-76
2021/10/13 01:23:34;;;;;;;8.05;4.97;;;7.60;99.90;;;;;;5004299;28;20029;-77
2021/10/13 01:26:38;;;;;;;10.50;5.65;;;7.60;99.90;;;;;;5004793;28;20029;-76
2021/10/13 01:29:24;;;;;;;8.15;5.55;;;7.40;99.90;;;;;;5022364;28;20088;-76
2021/10/13 01:32:16;;;;;;;12.20;5.88;;;7.30;99.90;;;;;;5022232;28;20041;-76
2021/10/13 01:35:02;;;;;;;9.35;5.13;;;7.40;99.90;;;;;;5009639;28;20032;-76
2021/10/13 01:37:51;;;;;;;11.82;5.63;;;7.40;99.90;;;;;;5000929;28;20056;-76
2021/10/13 01:40:37;;;;;;;11.27;6.75;;;7.40;99.90;;;;;;5009702;28;20094;-76
2021/10/13 01:43:23;;;;;;;8.65;6.35;;;7.50;99.90;;;;;;5022492;28;20121;-76
2021/10/13 01:46:09;;;;;;;8.55;5.65;;;7.40;99.90;;;;;;5008749;28;20068;-76
2021/10/13 01:48:55;;;;;;;8.18;5.90;;;7.40;99.90;;;;;;5023435;28;20551;-76
2021/10/13 01:51:41;;;;;;;8.45;6.63;;;7.40;99.90;;;;;;4994789;28;20041;-76
2021/10/13 01:54:26;;;;;;;8.82;6.05;;;7.30;99.90;;;;;;5007679;28;20113;-77
2021/10/13 01:57:11;;;;;;;14.10;7.20;;;7.30;99.90;;;;;;5022497;28;20049;-77
2021/10/13 02:00:01;;;;;;;11.93;7.20;;;7.20;99.90;;;;;;5025276;28;20097;-76
2021/10/13 02:02:47;;;;;;;10.90;7.15;;;7.10;99.90;;;;;;5023718;28;20061;-76
2021/10/13 02:05:34;;;;;;;12.32;7.90;;;7.10;99.90;;;;;;5005543;28;20036;-76
2021/10/13 02:08:20;;;;;;;13.10;8.70;;;6.90;99.90;;;;;;4991503;28;20040;-77
2021/10/13 02:11:05;;;;;;;13.45;8.75;;;7.00;99.90;;;;;;5005104;28;20551;-76
2021/10/13 02:13:51;;;;;;;12.48;8.35;;;7.00;99.90;;;;;;5019710;28;20037;-77
2021/10/13 02:16:37;;;;;;;15.00;8.30;;;7.20;99.90;;;;;;5004865;28;20088;-75
2021/10/13 02:19:27;;;;;;;12.40;8.52;;;7.40;99.90;;;;;;5005614;28;20414;-76
2021/10/13 02:22:12;;;;;;;12.68;8.70;;;7.40;99.90;;;;;;5001621;28;20033;-75
2021/10/13 02:24:56;;;;;;;11.75;8.40;;;7.50;99.90;;;;;;4996527;28;20052;-76
2021/10/13 02:27:46;;;;;;;12.02;9.23;;;7.50;99.90;;;;;;4982405;28;20045;-76
2021/10/13 02:30:30;;;;;;;16.63;10.10;;;7.60;99.90;;;;;;4985394;28;20089;-75
2021/10/13 02:33:14;;;;;;;13.75;9.25;;;7.60;99.90;;;;;;4970679;28;20130;-77
2021/10/13 02:35:59;;;;;;;13.43;9.95;;;7.60;99.90;;;;;;4986840;28;20040;-76
2021/10/13 02:38:43;;;;;;;14.80;9.75;;;7.60;99.90;;;;;;4973811;28;20038;-77
2021/10/13 02:41:27;;;;;;;17.17;10.23;;;7.70;99.90;;;;;;4971505;28;20414;-77
2021/10/13 02:44:11;;;;;;;15.60;11.05;;;7.60;99.90;;;;;;4970666;28;20072;-77
2021/10/13 02:47:12;;;;;;;20.17;10.85;;;7.40;99.90;;;;;;4984518;28;20085;-77
2021/10/13 02:50:08;;;;;;;13.82;10.25;;;7.40;99.90;;;;;;5001526;28;20057;-78
2021/10/13 02:52:52;;;;;;;14.63;10.50;;;7.40;99.90;;;;;;4990543;28;20626;-78
2021/10/13 02:55:40;;;;;;;16.15;11.10;;;7.50;99.90;;;;;;4989509;28;20532;-78
2021/10/13 02:58:36;;;;;;;13.98;10.85;;;7.40;99.90;;;;;;4986822;28;20037;-79
2021/10/13 03:01:24;;;;;;;17.10;10.40;;;7.50;99.90;;;;;;4987221;28;20147;-79
2021/10/13 03:04:20;;;;;;;16.23;11.02;;;7.40;99.90;;;;;;4971514;28;20122;-76
2021/10/13 03:07:09;;;;;;;15.82;11.05;;;7.50;99.90;;;;;;4985580;28;20037;-77
2021/10/13 03:09:57;;;;;;;16.08;11.25;;;7.50;99.90;;;;;;4971278;28;20418;-77
2021/10/13 03:12:51;;;;;;;18.40;11.98;;;7.60;99.90;;;;;;4985913;28;20073;-78
2021/10/13 03:15:35;;;;;;;16.10;9.73;;;7.40;99.90;;;;;;5001984;28;20100;-78
2021/10/13 03:18:21;;;;;;;15.57;11.63;;;7.40;99.90;;;;;;4972492;28;20041;-78
2021/10/13 03:21:06;;;;;;;15.98;11.63;;;7.40;99.90;;;;;;4986419;28;20073;-78
2021/10/13 03:23:51;;;;;;;17.67;12.40;;;7.40;99.90;;;;;;4984924;28;20073;-78
2021/10/13 03:26:35;;;;;;;13.57;10.60;;;7.40;99.90;;;;;;4988889;28;20053;-78
2021/10/13 03:29:20;;;;;;;16.88;10.93;;;7.50;99.90;;;;;;4990904;28;20048;-78
2021/10/13 03:32:04;;;;;;;16.33;10.20;;;7.50;99.90;;;;;;5006987;28;20092;-78
2021/10/13 03:34:48;;;;;;;14.80;9.80;;;7.50;99.90;;;;;;5008709;28;20041;-78
2021/10/13 03:37:33;;;;;;;17.92;11.10;;;7.60;99.90;;;;;;5011671;28;20098;-78
2021/10/13 03:40:17;;;;;;;18.98;10.98;;;7.50;99.90;;;;;;5010847;28;20049;-78
2021/10/13 03:43:03;;;;;;;16.23;10.60;;;7.50;99.90;;;;;;5024386;28;20385;-76
2021/10/13 03:45:47;;;;;;;15.35;10.82;;;7.50;99.90;;;;;;5009171;28;20049;-77
2021/10/13 03:48:31;;;;;;;14.48;11.23;;;7.50;99.90;;;;;;5019998;28;20037;-77
2021/10/13 03:51:15;;;;;;;16.58;11.70;;;7.40;99.90;;;;;;5007330;28;20058;-76
2021/10/13 03:54:00;;;;;;;15.90;11.55;;;7.50;99.90;;;;;;5007007;28;20060;-79
2021/10/13 03:56:44;;;;;;;18.58;13.00;;;7.40;99.90;;;;;;5021537;28;20449;-78
2021/10/13 03:59:28;;;;;;;19.60;13.90;;;7.20;99.90;;;;;;5017462;28;20099;-78
2021/10/13 04:02:12;;;;;;;21.00;12.95;;;7.20;99.90;;;;;;5023231;28;20048;-78
2021/10/13 04:04:56;;;;;;;16.75;13.00;;;7.20;99.90;;;;;;5021357;28;20084;-78
2021/10/13 04:07:40;;;;;;;18.05;13.55;;;7.30;99.90;;;;;;5008098;28;20065;-78
2021/10/13 04:10:25;;;;;;;19.77;12.88;;;7.30;99.90;;;;;;5009959;28;20033;-77
2021/10/13 04:13:09;;;;;;;21.02;14.32;;;7.30;99.90;;;;;;5008705;28;20045;-78
2021/10/13 04:15:53;;;;;;;20.05;14.10;;;7.30;99.90;;;;;;5009761;28;20065;-77
2021/10/13 04:18:37;;;;;;;18.98;13.95;;;7.20;99.90;;;;;;5011473;28;20041;-77
2021/10/13 04:21:21;;;;;;;20.48;14.88;;;7.10;99.90;;;;;;4995577;28;20081;-77
2021/10/13 04:24:05;;;;;;;20.80;15.20;;;7.10;99.90;;;;;;4997301;28;20041;-77
2021/10/13 04:26:50;;;;;;;21.43;14.53;;;6.90;99.90;;;;;;4981385;28;20041;-78
2021/10/13 04:29:34;;;;;;;21.92;15.20;;;6.80;99.90;;;;;;4983422;28;20049;-77
2021/10/13 04:32:20;;;;;;;24.48;15.18;;;6.90;99.90;;;;;;5000840;28;20044;-77
2021/10/13 04:35:05;;;;;;;22.02;16.33;;;7.00;99.90;;;;;;5014742;28;20075;-76
2021/10/13 04:37:49;;;;;;;28.60;16.45;;;6.90;99.90;;;;;;5040715;28;20500;-76
2021/10/13 04:40:34;;;;;;;20.77;15.90;;;6.90;99.90;;;;;;5010846;28;20056;-77
2021/10/13 04:43:18;;;;;;;24.02;17.42;;;7.00;99.90;;;;;;5029649;28;20052;-78
2021/10/13 04:46:02;;;;;;;23.50;17.10;;;6.70;99.90;;;;;;5032407;28;20044;-78
2021/10/13 04:48:46;;;;;;;27.40;17.88;;;6.80;99.90;;;;;;5040729;28;20076;-81
2021/10/13 04:51:30;;;;;;;26.40;17.30;;;6.80;99.90;;;;;;5033241;28;20041;-79
2021/10/13 04:54:14;;;;;;;28.50;17.90;;;7.00;99.90;;;;;;5013768;28;20083;-79
2021/10/13 04:56:58;;;;;;;23.70;17.25;;;7.00;99.90;;;;;;5014292;28;20060;-78
2021/10/13 04:59:42;;;;;;;31.30;18.38;;;6.90;99.90;;;;;;5031844;28;20041;-79
2021/10/13 05:02:27;;;;;;;27.90;18.58;;;6.80;99.90;;;;;;5016382;28;20098;-77
2021/10/13 05:05:11;;;;;;;25.85;18.20;;;6.80;99.90;;;;;;5019613;28;20405;-78
2021/10/13 05:07:55;;;;;;;30.48;19.77;;;7.00;99.90;;;;;;4997004;28;20041;-79
2021/10/13 05:10:39;;;;;;;26.17;19.35;;;7.00;99.90;;;;;;4997687;28;20120;-80
2021/10/13 05:13:24;;;;;;;28.23;20.30;;;6.90;99.90;;;;;;5011159;28;20165;-79
2021/10/13 05:16:08;;;;;;;28.40;20.27;;;7.00;99.90;;;;;;4998173;28;20033;-78
2021/10/13 05:18:52;;;;;;;31.43;18.97;;;7.00;99.90;;;;;;4997341;28;20045;-77
2021/10/13 05:21:37;;;;;;;30.73;20.90;;;7.00;99.90;;;;;;4994959;28;20311;-77
2021/10/13 05:24:21;;;;;;;30.70;21.42;;;6.90;99.90;;;;;;5008938;28;20476;-77
2021/10/13 05:27:06;;;;;;;31.85;21.00;;;6.70;99.90;;;;;;4997873;28;20056;-76
2021/10/13 05:29:50;;;;;;;30.52;20.13;;;6.80;99.90;;;;;;4994929;28;20040;-77
2021/10/13 05:32:34;;;;;;;27.60;19.77;;;6.70;99.90;;;;;;4993415;28;20093;-76
2021/10/13 05:35:18;;;;;;;29.00;19.67;;;6.80;99.90;;;;;;5007476;28;20029;-76
2021/10/13 05:38:03;;;;;;;28.70;19.23;;;6.80;99.90;;;;;;4994336;28;20092;-76
2021/10/13 05:40:47;;;;;;;25.00;19.50;;;6.90;99.90;;;;;;5009415;28;20081;-75
2021/10/13 05:43:31;;;;;;;27.38;18.50;;;7.00;99.90;;;;;;5010682;28;20417;-77
2021/10/13 05:46:16;;;;;;;28.53;20.70;;;6.80;99.90;;;;;;5020702;28;20045;-76
2021/10/13 05:49:00;;;;;;;28.00;17.53;;;6.80;99.90;;;;;;5017399;28;20130;-76
2021/10/13 05:51:44;;;;;;;29.90;17.67;;;6.80;99.90;;;;;;4987660;28;20119;-77
2021/10/13 05:54:28;;;;;;;23.13;17.17;;;6.60;99.90;;;;;;4988174;28;20768;-77
2021/10/13 05:57:12;;;;;;;23.98;17.40;;;6.50;99.90;;;;;;5002627;28;20180;-77
2021/10/13 05:59:58;;;;;;;24.02;16.33;;;6.40;99.90;;;;;;5017722;28;20053;-76
2021/10/13 06:02:42;;;;;;;24.58;16.88;;;6.40;99.90;;;;;;5003959;28;20096;-76
2021/10/13 06:05:27;;;;;;;21.67;16.17;;;6.40;99.90;;;;;;5006949;28;20033;-76
2021/10/13 06:08:11;;;;;;;23.23;16.98;;;6.20;99.90;;;;;;5008197;28;20045;-78
2021/10/13 06:10:56;;;;;;;22.73;15.95;;;6.20;99.90;;;;;;5007908;28;20044;-76
2021/10/13 06:13:41;;;;;;;23.77;16.48;;;6.10;99.90;;;;;;5023092;28;20076;-77
2021/10/13 06:16:25;;;;;;;32.47;18.35;;;5.90;99.90;;;;;;5007612;28;20057;-76
2021/10/13 06:19:09;;;;;;;24.92;16.13;;;5.80;99.90;;;;;;5007716;28;20045;-76
2021/10/13 06:21:56;;;;;;;42.50;17.92;;;5.70;99.90;;;;;;5006868;28;20060;-80
2021/10/13 06:24:40;;;;;;;33.53;19.63;;;5.70;99.90;;;;;;5008738;28;20060;-78
2021/10/13 06:27:25;;;;;;;26.73;17.67;;;5.60;99.90;;;;;;5007182;28;20045;-78
2021/10/13 06:30:09;;;;;;;35.00;20.85;;;5.40;99.90;;;;;;5008264;28;20048;-79
2021/10/13 06:32:53;;;;;;;32.53;20.92;;;5.40;99.90;;;;;;4996156;28;20057;-78
2021/10/13 06:35:37;;;;;;;40.93;21.50;;;5.50;99.90;;;;;;5009297;28;20119;-78
2021/10/13 06:38:21;;;;;;;36.50;19.83;;;5.50;99.90;;;;;;5009398;28;20037;-79
2021/10/13 06:41:09;;;;;;;31.58;18.83;;;5.50;99.90;;;;;;5008521;28;20041;-78
2021/10/13 06:43:53;;;;;;;32.33;19.13;;;5.60;99.90;;;;;;5006422;28;20041;-77
2021/10/13 06:46:39;;;;;;;27.52;19.30;;;5.70;99.90;;;;;;4992486;28;20033;-77
2021/10/13 06:49:23;;;;;;;28.42;18.52;;;5.80;99.90;;;;;;4991753;28;20060;-76
2021/10/13 06:52:07;;;;;;;30.67;19.52;;;5.80;99.90;;;;;;5004767;28;20388;-75
2021/10/13 06:54:51;;;;;;;28.10;16.35;;;5.80;99.90;;;;;;5007145;28;20106;-77
2021/10/13 06:57:36;;;;;;;24.17;17.38;;;5.90;99.90;;;;;;5007742;28;20060;-77
2021/10/13 07:00:19;;;;;;;30.30;16.10;;;5.80;99.90;;;;;;4993946;28;20056;-78
2021/10/13 07:03:04;;;;;;;39.53;16.00;;;6.00;99.90;;;;;;5023181;28;20478;-77
2021/10/13 07:05:48;;;;;;;51.17;17.65;;;5.90;99.90;;;;;;5006759;28;20053;-79
2021/10/13 07:08:33;;;;;;;58.70;18.52;;;5.80;99.90;;;;;;5008855;28;20048;-79
2021/10/13 07:11:19;;;;;;;36.35;17.95;;;5.70;99.90;;;;;;4995725;28;20036;-79
2021/10/13 07:14:06;;;;;;;27.48;19.25;;;5.70;99.90;;;;;;5009695;28;20104;-79
2021/10/13 07:16:50;;;;;;;38.30;18.27;;;5.70;99.90;;;;;;5008732;28;20061;-77
2021/10/13 07:19:34;;;;;;;25.42;18.40;;;6.00;99.90;;;;;;5006621;28;20176;-78
2021/10/13 07:22:18;;;;;;;61.83;21.07;;;6.10;99.90;;;;;;4992590;28;20041;-77
2021/10/13 07:25:04;;;;;;;37.55;17.60;;;6.30;99.90;;;;;;5006179;28;20807;-76
2021/10/13 07:27:48;;;;;;;45.25;19.83;;;6.30;99.90;;;;;;5007934;28;20048;-76
2021/10/13 07:30:33;;;;;;;56.28;20.20;;;6.30;99.90;;;;;;5006197;28;20076;-76
2021/10/13 07:33:17;;;;;;;46.05;18.25;;;6.30;99.90;;;;;;4992209;28;20134;-77
2021/10/13 07:36:02;;;;;;;37.65;19.45;;;6.30;99.90;;;;;;4991531;28;20041;-77
2021/10/13 07:38:47;;;;;;;35.63;19.13;;;6.40;99.90;;;;;;4993617;28;20041;-77
2021/10/13 07:41:31;;;;;;;;;;;6.50;99.90;;;;;;5010485;28;20114;-80
2021/10/13 07:44:15;;;;;;;32.47;20.92;;;6.50;99.90;;;;;;5009902;28;19928;-79
2021/10/13 07:47:00;;;;;;;31.43;20.57;;;6.50;99.90;;;;;;4996016;28;20041;-79
2021/10/13 07:49:44;;;;;;;26.98;18.67;;;6.70;99.90;;;;;;5008658;28;20068;-78
2021/10/13 07:52:28;;;;;;;28.57;20.30;;;6.80;99.90;;;;;;5009204;28;20037;-79
2021/10/13 07:55:12;;;;;;;27.42;19.15;;;7.00;99.90;;;;;;5014039;28;20280;-78
2021/10/13 07:57:56;;;;;;;31.85;21.45;;;7.20;99.90;;;;;;5024282;28;20036;-79
2021/10/13 08:00:41;;;;;;;31.55;20.90;;;7.40;99.90;;;;;;5027121;28;20044;-78
2021/10/13 08:03:26;;;;;;;31.10;21.90;;;7.40;99.90;;;;;;5014564;28;20032;-78
2021/10/13 08:06:10;;;;;;;30.23;19.70;;;7.40;99.90;;;;;;5021676;28;20032;-78
2021/10/13 08:08:54;;;;;;;24.45;18.45;;;7.50;99.90;;;;;;5012041;28;20169;-82
2021/10/13 08:11:39;;;;;;;28.83;18.15;;;7.70;99.90;;;;;;5011659;28;20068;-80
2021/10/13 08:14:23;;;;;;;23.27;17.02;;;7.70;99.90;;;;;;5008731;28;20036;-80
2021/10/13 08:17:09;;;;;;;24.55;17.85;;;7.70;99.90;;;;;;5010849;28;20492;-80
2021/10/13 08:19:53;;;;;;;27.77;18.67;;;7.70;99.90;;;;;;5014399;28;20059;-80
2021/10/13 08:22:38;;;;;;;25.50;17.83;;;7.50;99.90;;;;;;5011467;28;20040;-80
2021/10/13 08:25:22;;;;;;;25.55;18.70;;;7.60;99.90;;;;;;5016516;28;20048;-80
2021/10/13 08:28:06;;;;;;;24.85;18.38;;;7.70;99.90;;;;;;5014376;28;20073;-81
2021/10/13 08:30:51;;;;;;;26.17;17.90;;;7.80;99.90;;;;;;5014134;28;20037;-80
2021/10/13 08:33:36;;;;;;;;;;;7.80;99.90;;;;;;5000485;28;20045;-81
2021/10/13 08:36:21;;;;;;;22.45;16.98;;;7.90;99.90;;;;;;5012061;28;19916;-80
2021/10/13 08:39:05;;;;;;;22.05;17.48;;;8.00;99.90;;;;;;4997678;28;20093;-79
2021/10/13 08:41:49;;;;;;;23.60;18.40;;;8.00;99.90;;;;;;4997012;28;20064;-80
2021/10/13 08:44:34;;;;;;;25.02;17.58;;;8.10;99.90;;;;;;5011172;28;20040;-79
2021/10/13 08:47:18;;;;;;;23.75;17.92;;;8.10;99.90;;;;;;5026816;28;20068;-79
2021/10/13 08:50:03;;;;;;;24.00;17.70;;;8.10;99.90;;;;;;5026215;28;20034;-80
2021/10/13 08:52:47;;;;;;;25.33;17.67;;;8.30;99.90;;;;;;5012080;28;20036;-79
2021/10/13 08:55:32;;;;;;;21.27;17.17;;;8.40;99.90;;;;;;5011567;28;20420;-79
2021/10/13 08:58:19;;;;;;;19.08;14.02;;;8.60;99.90;;;;;;5011111;28;20044;-78
2021/10/13 09:01:03;;;;;;;19.40;15.98;;;8.70;99.90;;;;;;5011225;28;20567;-79
2021/10/13 09:03:55;;;;;;;16.92;14.52;;;8.80;99.90;;;;;;5012108;28;20033;-77
2021/10/13 09:06:39;;;;;;;17.35;12.50;;;9.00;99.90;;;;;;5009688;28;20064;-77
2021/10/13 09:09:22;;;;;;;16.15;12.35;;;9.10;99.90;;;;;;5009520;28;20037;-76
2021/10/13 09:12:06;;;;;;;18.58;11.80;;;9.20;99.90;;;;;;5010401;28;20556;-75
2021/10/13 09:15:02;;;;;;;14.48;10.88;;;9.20;99.90;;;;;;5011417;28;20114;-79
2021/10/13 09:18:08;;;;;;;13.20;10.02;;;9.40;99.90;;;;;;5011835;28;20044;-80
2021/10/13 09:20:53;;;;;;;13.32;9.77;;;9.40;99.90;;;;;;5027094;28;20536;-79
2021/10/13 09:23:38;;;;;;;12.35;9.57;;;9.40;99.90;;;;;;5011401;28;20041;-77
2021/10/13 09:26:26;;;;;;;10.82;8.93;;;9.60;99.90;;;;;;5011789;28;20053;-80
2021/10/13 09:29:11;;;;;;;11.05;8.73;;;9.90;99.70;;;;;;5011731;28;20084;-77
2021/10/13 09:32:00;;;;;;;10.68;8.02;;;10.10;99.20;;;;;;5012554;28;20045;-79
2021/10/13 09:34:46;;;;;;;10.65;7.90;;;10.20;99.00;;;;;;5009886;28;20115;-80
2021/10/13 09:37:48;;;;;;;10.48;7.20;;;10.50;98.60;;;;;;5027715;28;20109;-78
2021/10/13 09:40:41;;;;;;;14.13;8.15;;;10.80;99.00;;;;;;5026842;28;20040;-77
2021/10/13 09:43:32;;;;;;;7.65;6.60;;;10.90;97.80;;;;;;5011593;28;20088;-77
2021/10/13 09:46:16;;;;;;;9.77;6.90;;;11.10;97.10;;;;;;5019455;28;20037;-78
2021/10/13 09:49:00;;;;;;;9.40;6.68;;;11.10;97.20;;;;;;4992881;28;20034;-78
2021/10/13 09:51:45;;;;;;;9.30;6.15;;;11.10;97.10;;;;;;4978022;28;20165;-77
2021/10/13 09:54:29;;;;;;;6.95;6.13;;;11.30;97.30;;;;;;4990825;28;20037;-77
2021/10/13 09:57:27;;;;;;;8.18;6.20;;;11.30;97.70;;;;;;4990019;28;20081;-78
2021/10/13 10:00:13;;;;;;;9.27;5.43;;;11.40;97.10;;;;;;4991916;28;20084;-77
2021/10/13 10:03:01;;;;;;;8.10;4.70;;;11.60;96.50;;;;;;4992360;28;20042;-77
2021/10/13 10:05:46;;;;;;;8.25;4.35;;;11.50;95.90;;;;;;5010558;28;20052;-79
2021/10/13 10:08:50;;;;;;;6.60;3.95;;;11.50;96.70;;;;;;4998121;28;20060;-78
2021/10/13 10:11:37;;;;;;;6.80;4.03;;;11.60;95.80;;;;;;5011237;28;20033;-79
2021/10/13 10:14:35;;;;;;;5.90;4.00;;;11.70;95.90;;;;;;5009973;28;20072;-78
2021/10/13 10:17:39;;;;;;;4.53;3.28;;;11.80;95.80;;;;;;5007381;28;20094;-78
2021/10/13 10:20:39;;;;;;;5.07;2.60;;;11.80;95.10;;;;;;5009301;28;20559;-78
2021/10/13 10:23:29;;;;;;;4.93;2.60;;;11.70;94.20;;;;;;5021226;28;20040;-82
2021/10/13 10:26:25;;;;;;;5.10;2.70;;;11.60;94.50;;;;;;5029828;28;20100;-82
2021/10/13 10:29:14;;;;;;;8.55;3.40;;;11.60;95.30;;;;;;5010810;28;20563;-81
2021/10/13 10:31:59;;;;;;;3.78;2.40;;;11.90;94.10;;;;;;4980518;28;20053;-81
2021/10/13 10:35:05;;;;;;;3.87;2.87;;;12.20;93.50;;;;;;4997015;28;20045;-80
2021/10/13 10:37:51;;;;;;;4.15;2.78;;;12.20;93.90;;;;;;5025216;28;20076;-77
2021/10/13 10:40:39;;;;;;;4.00;2.65;;;12.30;93.70;;;;;;5015032;28;20044;-79
2021/10/13 10:43:25;;;;;;;4.45;2.60;;;12.10;93.10;;;;;;5013379;28;20037;-77
2021/10/13 10:46:09;;;;;;;3.88;2.22;;;11.90;94.10;;;;;;5020064;28;20033;-78
2021/10/13 10:48:53;;;;;;;7.27;2.57;;;11.50;94.20;;;;;;5014872;28;20088;-77
2021/10/13 10:52:01;;;;;;;4.30;2.80;;;11.50;94.10;;;;;;4986192;28;20061;-80
2021/10/13 10:55:08;;;;;;;4.38;2.88;;;11.60;94.70;;;;;;5017518;28;20063;-78
2021/10/13 10:57:52;;;;;;;3.85;2.63;;;11.70;93.90;;;;;;4991353;28;20088;-81
2021/10/13 11:00:36;;;;;;;5.07;3.10;;;11.70;93.80;;;;;;4978238;28;20036;-80
2021/10/13 11:03:22;;;;;;;5.93;2.78;;;11.60;93.30;;;;;;5030497;28;20037;-81
2021/10/13 11:06:15;;;;;;;6.30;2.70;;;11.60;93.10;;;;;;4976754;28;20041;-84
2021/10/13 11:09:05;;;;;;;7.30;2.70;;;11.60;93.20;;;;;;5006992;28;20029;-79
2021/10/13 11:11:50;;;;;;;3.75;2.53;;;11.60;93.30;;;;;;5008734;28;20109;-79
2021/10/13 11:14:35;;;;;;;3.87;2.50;;;11.40;92.10;;;;;;5016923;28;20098;-77
2021/10/13 11:17:24;;;;;;;5.43;2.83;;;11.30;92.30;;;;;;5012133;28;20597;-77
2021/10/13 11:20:14;;;;;;;4.30;3.00;;;11.30;92.30;;;;;;5006668;28;20060;-78
2021/10/13 11:23:02;;;;;;;5.43;2.72;;;11.50;92.20;;;;;;5007454;28;20088;-78
2021/10/13 11:25:46;;;;;;;5.60;2.78;;;11.60;92.30;;;;;;5004474;28;20061;-80
2021/10/13 11:28:39;;;;;;;4.63;3.08;;;11.70;92.00;;;;;;5013683;28;20098;-79
2021/10/13 11:31:24;;;;;;;4.55;2.90;;;11.80;91.60;;;;;;5025237;28;20037;-80
2021/10/13 11:34:08;;;;;;;4.43;2.90;;;11.80;91.90;;;;;;5007766;28;20025;-76
2021/10/13 11:36:57;;;;;;;5.50;3.15;;;12.00;91.70;;;;;;4996130;28;20041;-76
2021/10/13 11:39:45;;;;;;;6.38;3.03;;;12.10;91.60;;;;;;5031654;28;20037;-77
2021/10/13 11:42:31;;;;;;;4.00;2.95;;;11.90;91.90;;;;;;5026271;28;20125;-78
2021/10/13 11:45:18;;;;;;;5.00;3.10;;;12.00;91.70;;;;;;4996651;28;20544;-77
2021/10/13 11:48:02;;;;;;;5.03;2.78;;;12.30;91.80;;;;;;5020639;28;20037;-78
2021/10/13 11:50:47;;;;;;;4.78;2.75;;;12.20;91.90;;;;;;5022990;28;20405;-79
2021/10/13 11:53:31;;;;;;;5.95;3.10;;;12.20;91.10;;;;;;4995889;28;20138;-78
2021/10/13 11:56:16;;;;;;;5.10;2.60;;;12.40;91.40;;;;;;4990625;28;20126;-78
2021/10/13 11:59:11;;;;;;;5.05;2.95;;;12.50;91.40;;;;;;5022186;28;20045;-80
2021/10/13 12:02:08;;;;;;;6.07;2.70;;;12.60;91.10;;;;;;5012259;28;20045;-80
2021/10/13 12:04:53;;;;;;;4.85;2.72;;;12.30;90.70;;;;;;5012274;28;20061;-78
2021/10/13 12:07:42;;;;;;;4.10;2.75;;;12.30;90.70;;;;;;4987752;28;20045;-78
2021/10/13 12:10:50;;;;;;;4.70;2.90;;;12.50;90.60;;;;;;5001442;28;20508;-77
2021/10/13 12:13:39;;;;;;;2.50;2.30;;;12.60;90.00;;;;;;4993683;28;20065;-78
2021/10/13 12:16:26;;;;;;;3.72;2.35;;;12.60;89.60;;;;;;4990714;28;20058;-79
2021/10/13 12:19:15;;;;;;;4.05;2.15;;;12.70;89.40;;;;;;5017112;28;20032;-82
2021/10/13 12:22:01;;;;;;;4.15;2.35;;;12.50;87.50;;;;;;5010242;28;20041;-81
2021/10/13 12:24:45;;;;;;;4.68;2.50;;;12.60;89.60;;;;;;4997456;28;20041;-81
2021/10/13 12:27:33;;;;;;;3.97;2.15;;;12.60;87.60;;;;;;4997228;28;20045;-81
2021/10/13 12:30:36;;;;;;;3.42;2.42;;;12.60;85.70;;;;;;5005676;28;20069;-82
2021/10/13 12:33:20;;;;;;;6.20;2.10;;;12.50;85.00;;;;;;5015470;28;20524;-81
2021/10/13 12:36:15;;;;;;;4.75;2.40;;;12.60;86.50;;;;;;5012990;28;20041;-81
2021/10/13 12:39:03;;;;;;;2.60;2.20;;;13.00;86.60;;;;;;5019428;28;20041;-81
2021/10/13 12:41:48;;;;;;;4.95;2.45;;;13.30;84.50;;;;;;5002426;28;20037;-81
2021/10/13 12:44:37;;;;;;;3.28;1.90;;;13.10;81.70;;;;;;5015667;28;20049;-80
2021/10/13 12:47:22;;;;;;;3.15;1.98;;;12.70;80.40;;;;;;5008458;28;20061;-79
2021/10/13 12:50:14;;;;;;;2.95;2.15;;;12.80;81.30;;;;;;5023285;28;20045;-79
2021/10/13 12:52:58;;;;;;;5.22;2.55;;;12.90;82.00;;;;;;5030310;28;20056;-79
2021/10/13 12:55:45;;;;;;;5.50;2.50;;;12.70;87.50;;;;;;5026122;28;20045;-81
2021/10/13 12:58:30;;;;;;;5.65;2.42;;;12.50;86.20;;;;;;4988719;28;20586;-81
2021/10/13 13:01:15;;;;;;;4.75;2.30;;;12.60;83.60;;;;;;5009093;28;20119;-81
2021/10/13 13:04:00;;;;;;;3.22;2.47;;;12.80;84.20;;;;;;4999955;28;20057;-81
2021/10/13 13:06:44;;;;;;;;;;;13.00;84.70;;;;;;5002673;28;20048;-82
2021/10/13 13:09:28;;;;;;;4.25;2.13;;;13.00;84.20;;;;;;5012717;28;19917;-81
2021/10/13 13:12:13;;;;;;;3.73;2.10;;;12.80;83.30;;;;;;5001783;28;20041;-81
2021/10/13 13:14:57;;;;;;;3.05;1.98;;;12.80;77.80;;;;;;5018942;28;20172;-81
2021/10/13 13:17:45;;;;;;;3.50;2.00;;;13.00;78.30;;;;;;5030956;28;20017;-80
2021/10/13 13:20:29;;;;;;;2.67;2.00;;;13.30;76.60;;;;;;5042878;28;20047;-80
2021/10/13 13:23:14;;;;;;;4.20;2.05;;;13.30;75.30;;;;;;5034124;28;20134;-81
2021/10/13 13:25:58;;;;;;;5.22;2.10;;;13.30;77.10;;;;;;5020224;28;20092;-81
2021/10/13 13:28:42;;;;;;;2.28;2.08;;;13.40;77.60;;;;;;5004180;28;20412;-82
2021/10/13 13:31:27;;;;;;;6.10;2.00;;;13.40;76.10;;;;;;5032874;28;20043;-81
2021/10/13 13:34:11;;;;;;;2.58;2.03;;;13.40;75.70;;;;;;5031764;28;20041;-81
2021/10/13 13:36:56;;;;;;;2.22;2.03;;;13.60;73.60;;;;;;5003889;28;20087;-81
2021/10/13 13:39:40;;;;;;;4.28;2.20;;;13.40;75.00;;;;;;5004095;28;20040;-83
2021/10/13 13:42:25;;;;;;;2.45;1.80;;;13.40;74.90;;;;;;5018839;28;20053;-81
2021/10/13 13:45:10;;;;;;;4.90;2.78;;;13.60;75.40;;;;;;5033016;28;20037;-83
2021/10/13 13:47:54;;;;;;;2.50;2.28;;;13.60;74.00;;;;;;5020199;28;20039;-82
2021/10/13 13:50:39;;;;;;;3.80;2.08;;;13.80;75.40;;;;;;5006417;28;20041;-82
2021/10/13 13:53:24;;;;;;;3.25;2.25;;;13.80;77.00;;;;;;5032048;28;20032;-80
2021/10/13 13:56:09;;;;;;;3.60;2.40;;;13.90;77.50;;;;;;5046824;28;20028;-81
2021/10/13 13:58:53;;;;;;;3.47;2.13;;;14.20;77.20;;;;;;5016241;28;20044;-81
2021/10/13 14:01:37;;;;;;;3.20;2.20;;;14.20;75.30;;;;;;5030919;28;20036;-81
2021/10/13 14:04:22;;;;;;;3.22;1.90;;;14.20;75.50;;;;;;5018033;28;20165;-78
2021/10/13 14:07:07;;;;;;;5.18;1.92;;;14.50;75.40;;;;;;5015295;28;20044;-79
2021/10/13 14:09:52;;;;;;;2.22;2.03;;;14.90;74.60;;;;;;5029067;28;20113;-80
2021/10/13 14:12:37;;;;;;;4.68;2.20;;;15.10;74.00;;;;;;5016548;28;20040;-79
2021/10/13 14:15:21;;;;;;;3.28;2.10;;;14.90;74.30;;;;;;5015287;28;20040;-78
2021/10/13 14:18:05;;;;;;;4.35;2.17;;;14.80;73.10;;;;;;5030798;28;20467;-78
2021/10/13 14:20:50;;;;;;;7.00;2.28;;;14.90;74.40;;;;;;5015323;28;20053;-77
2021/10/13 14:23:35;;;;;;;4.70;2.70;;;15.10;74.60;;;;;;5029230;28;20060;-80